Nordic Philip — 5BZH2 — position and weather

sailwx.info

Track history (hours):
 
Tides and Currents Weather Stations Pressure Air Temp Water Temp Dewpoint Dewpoint Depression Visibility Wind Speed Wind Dir Waves Ship Positions

Nordic Philip

Last reported at 2015-May-23 15:25 UTC. Time now 2015-May-23 16:28 UTC.
Position N 53°55' E 007°52'.

Length 152 m; draft 6 m.

Type: Cargo ship. MMSI: 212018000.

Date/timePositionNaut miles runAvg speedWind from/ knotsBaromVisibWave heightAir tempDewpointWater temp
2015-May-23 15:25N 53°55' E 007°52'0 0.0
2015-May-23 14:31N 53°55' E 007°52'0 0.0
2015-May-23 13:31N 53°55' E 007°53'0 0.0
2015-May-23 12:31N 53°55' E 007°53'0 0.0
2015-May-23 11:31N 53°55' E 007°53'0 0.0
2015-May-23 10:31N 53°55' E 007°53'0 0.0
2015-May-23 09:31N 53°55' E 007°52'0 0.0
2015-May-23 08:31N 53°55' E 007°52'0 0.0
2015-May-23 07:31N 53°55' E 007°52'0 0.1
2015-May-23 06:31N 53°55' E 007°52'0 0.0
2015-May-23 05:13N 53°55' E 007°52'0 0.0
2015-May-23 04:25N 53°55' E 007°52'0 0.1
2015-May-23 03:31N 53°55' E 007°52'0 0.1
2015-May-23 02:28N 53°55' E 007°53'0 0.0
2015-May-23 01:31N 53°55' E 007°53'0 0.0
2015-May-23 00:28N 53°55' E 007°53'0 0.0
2015-May-22 23:31N 53°55' E 007°53'0 0.0
2015-May-22 22:31N 53°55' E 007°53'0 0.0
2015-May-22 21:31N 53°55' E 007°53'0 0.0
2015-May-22 20:31N 53°55' E 007°53'0 0.1
2015-May-22 19:31N 53°56' E 007°52'0 0.1
2015-May-22 18:31N 53°55' E 007°52'0 0.0
2015-May-22 17:28N 53°55' E 007°52'0 0.1
2015-May-22 16:31N 53°56' E 007°52'0 0.1
2015-May-22 15:31N 53°55' E 007°53'0 0.1
2015-May-22 14:28N 53°55' E 007°53'0 0.0
2015-May-22 13:31N 53°55' E 007°53'0 0.0
2015-May-22 12:31N 53°55' E 007°53'0 0.0
2015-May-22 11:31N 53°55' E 007°53'0 0.0
2015-May-22 10:31N 53°55' E 007°53'0 0.0
2015-May-22 09:31N 53°55' E 007°53'0 0.0
2015-May-22 08:31N 53°55' E 007°53'0 0.1
2015-May-22 07:31N 53°56' E 007°52'0 0.1
2015-May-22 06:31N 53°56' E 007°52'0 0.0
2015-May-22 05:31N 53°56' E 007°52'0 0.0
2015-May-22 04:31N 53°56' E 007°52'0 0.0
2015-May-22 03:31N 53°56' E 007°52'0 0.1
2015-May-22 02:25N 53°55' E 007°53'0 0.0
2015-May-22 01:31N 53°55' E 007°53'0 0.0
2015-May-22 00:28N 53°55' E 007°53'0 0.0
2015-May-21 23:31N 53°55' E 007°53'0 0.0
2015-May-21 22:28N 53°55' E 007°53'0 0.0
2015-May-21 21:31N 53°55' E 007°53'0 0.0
2015-May-21 20:31N 53°55' E 007°53'0 0.0
2015-May-21 19:31N 53°55' E 007°53'0 0.2
2015-May-21 18:28N 53°55' E 007°52'0 0.1
2015-May-21 17:31N 53°55' E 007°52'0 0.0
2015-May-21 16:28N 53°55' E 007°52'0 0.1
2015-May-21 15:31N 53°55' E 007°52'0 0.2
2015-May-21 14:33N 53°55' E 007°53'0 0.0
2015-May-21 13:32N 53°55' E 007°53'0 0.0
2015-May-21 12:29N 53°55' E 007°53'0 0.0
2015-May-21 11:33N 53°55' E 007°53'0 0.0
2015-May-21 10:30N 53°55' E 007°53'0 0.0
2015-May-21 09:32N 53°55' E 007°53'0 0.0
2015-May-21 08:30N 53°55' E 007°53'0 0.0
2015-May-21 07:33N 53°55' E 007°53'0 0.0
2015-May-21 06:33N 53°55' E 007°53'0 0.1
2015-May-21 05:28N 53°55' E 007°52'0 0.1
2015-May-21 04:30N 53°55' E 007°52'0 0.1
2015-May-21 03:33N 53°56' E 007°52'0 0.1
2015-May-21 02:32N 53°55' E 007°53'0 0.0
2015-May-21 01:32N 53°55' E 007°53'0 0.0
2015-May-21 00:32N 53°55' E 007°53'0 0.0
2015-May-20 23:32N 53°55' E 007°53'6 6.5
2015-May-20 22:34N 53°60' E 008°00'1412.4
2015-May-20 21:27N 53°59' E 008°23'1315.1
2015-May-20 20:33N 53°53' E 008°43'1515.0
2015-May-20 19:33N 53°54' E 009°09'1 1.0
2015-May-20 18:33N 53°54' E 009°10'5 5.4
2015-May-20 17:33N 53°58' E 009°16'9 8.6
2015-May-20 16:30N 54°07' E 009°20'2 2.4
2015-May-20 15:33N 54°09' E 009°22'4 3.7
2015-May-20 14:33N 54°11' E 009°28'8 7.5
2015-May-20 13:33N 54°16' E 009°37'4 4.0
2015-May-20 12:33N 54°18' E 009°42'7 7.0
2015-May-20 11:33N 54°21' E 009°53'5 5.1
2015-May-20 10:33N 54°22' E 010°02'4 3.5
2015-May-20 09:33N 54°22' E 010°08'2 1.7
2015-May-20 08:33N 54°22' E 010°11'8 7.9
2015-May-20 07:33N 54°29' E 010°17'8 8.1
2015-May-20 06:33N 54°33' E 010°29'9 8.7
2015-May-20 05:33N 54°35' E 010°44'1111.5
2015-May-20 04:33N 54°36' E 011°04'1212.1
2015-May-20 03:33N 54°32' E 011°23'1312.5
2015-May-20 02:33N 54°27' E 011°43'1312.8
2015-May-20 01:33N 54°26' E 012°05'2311.7
2015-May-19 23:33N 54°43' E 012°32'5211.9
2015-May-19 19:11N 54°41' E 014°02'912.3
2015-May-19 18:26N 54°39' E 014°17'1112.2
2015-May-19 17:33N 54°38' E 014°36'1312.6
2015-May-19 16:33N 54°40' E 014°57'1312.9
2015-May-19 15:33N 54°42' E 015°19'1412.6
2015-May-19 14:27N 54°44' E 015°43'8712.3
2015-May-19 07:22N 55°07' E 018°10'1012.4
2015-May-19 06:33N 55°11' E 018°26'1313.0
2015-May-19 05:33N 55°16' E 018°47'1313.3
2015-May-19 04:33N 55°21' E 019°09'1313.0
2015-May-19 03:33N 55°26' E 019°30'1313.1
2015-May-19 02:34N 55°31' E 019°51'  
2015-May-16 08:08N 55°39' E 021°10'0 0.0
2015-May-16 06:12N 55°39' E 021°10'0 0.0
2015-May-15 12:33N 55°39' E 021°10'0 0.0
2015-May-15 11:14N 55°39' E 021°10'0 0.0
2015-May-15 10:25N 55°39' E 021°10'  
Track history (hours):
 
Tides and Currents Weather Stations Pressure Air Temp Water Temp Dewpoint Dewpoint Depression Visibility Wind Speed Wind Dir Waves Ship Positions

Nordic Philip

Last reported at 2015-May-23 15:25 UTC. Time now 2015-May-23 16:28 UTC.
Position N 53°55' E 007°52'.

Length 152 m; draft 6 m.

Type: Cargo ship. MMSI: 212018000.

Date/timePositionNaut miles runAvg speedWind from/ knotsBaromVisibWave heightAir tempDewpointWater temp
2015-May-23 15:25N 53°55' E 007°52'0 0.0
2015-May-23 14:31N 53°55' E 007°52'0 0.0
2015-May-23 13:31N 53°55' E 007°53'0 0.0
2015-May-23 12:31N 53°55' E 007°53'0 0.0
2015-May-23 11:31N 53°55' E 007°53'0 0.0
2015-May-23 10:31N 53°55' E 007°53'0 0.0
2015-May-23 09:31N 53°55' E 007°52'0 0.0
2015-May-23 08:31N 53°55' E 007°52'0 0.0
2015-May-23 07:31N 53°55' E 007°52'0 0.1
2015-May-23 06:31N 53°55' E 007°52'0 0.0
2015-May-23 05:13N 53°55' E 007°52'0 0.0
2015-May-23 04:25N 53°55' E 007°52'0 0.1
2015-May-23 03:31N 53°55' E 007°52'0 0.1
2015-May-23 02:28N 53°55' E 007°53'0 0.0
2015-May-23 01:31N 53°55' E 007°53'0 0.0
2015-May-23 00:28N 53°55' E 007°53'0 0.0
2015-May-22 23:31N 53°55' E 007°53'0 0.0
2015-May-22 22:31N 53°55' E 007°53'0 0.0
2015-May-22 21:31N 53°55' E 007°53'0 0.0
2015-May-22 20:31N 53°55' E 007°53'0 0.1
2015-May-22 19:31N 53°56' E 007°52'0 0.1
2015-May-22 18:31N 53°55' E 007°52'0 0.0
2015-May-22 17:28N 53°55' E 007°52'0 0.1
2015-May-22 16:31N 53°56' E 007°52'0 0.1
2015-May-22 15:31N 53°55' E 007°53'0 0.1
2015-May-22 14:28N 53°55' E 007°53'0 0.0
2015-May-22 13:31N 53°55' E 007°53'0 0.0
2015-May-22 12:31N 53°55' E 007°53'0 0.0
2015-May-22 11:31N 53°55' E 007°53'0 0.0
2015-May-22 10:31N 53°55' E 007°53'0 0.0
2015-May-22 09:31N 53°55' E 007°53'0 0.0
2015-May-22 08:31N 53°55' E 007°53'0 0.1
2015-May-22 07:31N 53°56' E 007°52'0 0.1
2015-May-22 06:31N 53°56' E 007°52'0 0.0
2015-May-22 05:31N 53°56' E 007°52'0 0.0
2015-May-22 04:31N 53°56' E 007°52'0 0.0
2015-May-22 03:31N 53°56' E 007°52'0 0.1
2015-May-22 02:25N 53°55' E 007°53'0 0.0
2015-May-22 01:31N 53°55' E 007°53'0 0.0
2015-May-22 00:28N 53°55' E 007°53'0 0.0
2015-May-21 23:31N 53°55' E 007°53'0 0.0
2015-May-21 22:28N 53°55' E 007°53'0 0.0
2015-May-21 21:31N 53°55' E 007°53'0 0.0
2015-May-21 20:31N 53°55' E 007°53'0 0.0
2015-May-21 19:31N 53°55' E 007°53'0 0.2
2015-May-21 18:28N 53°55' E 007°52'0 0.1
2015-May-21 17:31N 53°55' E 007°52'0 0.0
2015-May-21 16:28N 53°55' E 007°52'0 0.1
2015-May-21 15:31N 53°55' E 007°52'0 0.2
2015-May-21 14:33N 53°55' E 007°53'0 0.0
2015-May-21 13:32N 53°55' E 007°53'0 0.0
2015-May-21 12:29N 53°55' E 007°53'0 0.0
2015-May-21 11:33N 53°55' E 007°53'0 0.0
2015-May-21 10:30N 53°55' E 007°53'0 0.0
2015-May-21 09:32N 53°55' E 007°53'0 0.0
2015-May-21 08:30N 53°55' E 007°53'0 0.0
2015-May-21 07:33N 53°55' E 007°53'0 0.0
2015-May-21 06:33N 53°55' E 007°53'0 0.1
2015-May-21 05:28N 53°55' E 007°52'0 0.1
2015-May-21 04:30N 53°55' E 007°52'0 0.1
2015-May-21 03:33N 53°56' E 007°52'0 0.1
2015-May-21 02:32N 53°55' E 007°53'0 0.0
2015-May-21 01:32N 53°55' E 007°53'0 0.0
2015-May-21 00:32N 53°55' E 007°53'0 0.0
2015-May-20 23:32N 53°55' E 007°53'6 6.5
2015-May-20 22:34N 53°60' E 008°00'1412.4
2015-May-20 21:27N 53°59' E 008°23'1315.1
2015-May-20 20:33N 53°53' E 008°43'1515.0
2015-May-20 19:33N 53°54' E 009°09'1 1.0
2015-May-20 18:33N 53°54' E 009°10'5 5.4
2015-May-20 17:33N 53°58' E 009°16'9 8.6
2015-May-20 16:30N 54°07' E 009°20'2 2.4
2015-May-20 15:33N 54°09' E 009°22'4 3.7
2015-May-20 14:33N 54°11' E 009°28'8 7.5
2015-May-20 13:33N 54°16' E 009°37'4 4.0
2015-May-20 12:33N 54°18' E 009°42'7 7.0
2015-May-20 11:33N 54°21' E 009°53'5 5.1
2015-May-20 10:33N 54°22' E 010°02'4 3.5
2015-May-20 09:33N 54°22' E 010°08'2 1.7
2015-May-20 08:33N 54°22' E 010°11'8 7.9
2015-May-20 07:33N 54°29' E 010°17'8 8.1
2015-May-20 06:33N 54°33' E 010°29'9 8.7
2015-May-20 05:33N 54°35' E 010°44'1111.5
2015-May-20 04:33N 54°36' E 011°04'1212.1
2015-May-20 03:33N 54°32' E 011°23'1312.5
2015-May-20 02:33N 54°27' E 011°43'1312.8
2015-May-20 01:33N 54°26' E 012°05'2311.7
2015-May-19 23:33N 54°43' E 012°32'5211.9
2015-May-19 19:11N 54°41' E 014°02'912.3
2015-May-19 18:26N 54°39' E 014°17'1112.2
2015-May-19 17:33N 54°38' E 014°36'1312.6
2015-May-19 16:33N 54°40' E 014°57'1312.9
2015-May-19 15:33N 54°42' E 015°19'1412.6
2015-May-19 14:27N 54°44' E 015°43'8712.3
2015-May-19 07:22N 55°07' E 018°10'1012.4
2015-May-19 06:33N 55°11' E 018°26'1313.0
2015-May-19 05:33N 55°16' E 018°47'1313.3
2015-May-19 04:33N 55°21' E 019°09'1313.0
2015-May-19 03:33N 55°26' E 019°30'1313.1
2015-May-19 02:34N 55°31' E 019°51'  
2015-May-16 08:08N 55°39' E 021°10'0 0.0
2015-May-16 06:12N 55°39' E 021°10'0 0.0
2015-May-15 12:33N 55°39' E 021°10'0 0.0
2015-May-15 11:14N 55°39' E 021°10'0 0.0
2015-May-15 10:25N 55°39' E 021°10'  

Dump ship's entire track history